Time;durP1;ratioP1;P1;durP2;ratioP2;P2;SDS_P1;SDS_P2;PMS_P1;PMS_P2;Temp;Humidity;BMP_temperature;BMP_pressure;BME280_temperature;BME280_humidity;BME280_pressure;Samples;Min_cycle;Max_cycle;Signal;HPM_P1;HPM_P2
2022/07/05 00:01:13;;;;;;;5.50;3.72;;;;;;;22.60;57.62;100240.78;1665203;84;21009;-70
2022/07/05 00:03:39;;;;;;;6.28;3.60;;;;;;;22.56;57.57;100242.42;1665380;84;21089;-68
2022/07/05 00:06:05;;;;;;;7.12;4.12;;;;;;;22.51;57.78;100242.44;1662020;84;20982;-70
2022/07/05 00:08:31;;;;;;;6.67;4.30;;;;;;;22.46;58.01;100248.66;1679453;84;21065;-69
2022/07/05 00:10:57;;;;;;;5.87;4.58;;;;;;;22.42;58.01;100250.29;1667513;84;20982;-70
2022/07/05 00:13:24;;;;;;;5.10;4.20;;;;;;;22.40;58.42;100244.31;1676647;84;21068;-70
2022/07/05 00:15:52;;;;;;;4.62;4.22;;;;;;;22.41;58.70;100249.19;1669411;84;21501;-69
2022/07/05 00:18:18;;;;;;;4.30;3.98;;;;;;;22.38;58.59;100253.27;1682896;84;21090;-69
2022/07/05 00:20:45;;;;;;;7.33;3.98;;;;;;;22.30;58.71;100257.86;1672747;85;21084;-70
2022/07/05 00:23:13;;;;;;;4.60;4.28;;;;;;;22.25;58.78;100251.05;1680218;84;21414;-68
2022/07/05 00:25:39;;;;;;;4.58;4.17;;;;;;;22.21;58.88;100249.92;1678642;84;21066;-69
2022/07/05 00:28:07;;;;;;;5.35;4.35;;;;;;;22.18;59.10;100252.64;1684850;84;21041;-69
2022/07/05 00:30:34;;;;;;;5.45;4.22;;;;;;;22.16;59.06;100258.89;1673290;85;21532;-69
2022/07/05 00:33:00;;;;;;;4.72;4.08;;;;;;;22.15;59.10;100254.53;1675862;84;21081;-69
2022/07/05 00:35:26;;;;;;;6.80;4.83;;;;;;;22.15;59.27;100265.38;1674840;85;21017;-68
2022/07/05 00:37:53;;;;;;;5.45;4.05;;;;;;;22.14;59.23;100265.94;1673391;84;21477;-69
2022/07/05 00:40:19;;;;;;;6.22;4.50;;;;;;;22.14;59.30;100265.13;1673414;84;21136;-71
2022/07/05 00:42:45;;;;;;;5.55;4.53;;;;;;;22.13;59.35;100268.39;1667165;84;21010;-69
2022/07/05 00:45:13;;;;;;;4.08;3.83;;;;;;;22.13;59.41;100275.70;1666940;85;21068;-69
2022/07/05 00:47:41;;;;;;;4.50;4.10;;;;;;;22.09;59.40;100268.63;1668511;84;21108;-69
2022/07/05 00:50:08;;;;;;;4.97;4.67;;;;;;;22.09;59.15;100273.25;1671666;84;20969;-70
2022/07/05 00:52:36;;;;;;;6.78;4.72;;;;;;;22.09;59.02;100271.89;1661521;84;21010;-69
2022/07/05 00:55:04;;;;;;;5.22;4.72;;;;;;;22.10;59.06;100275.70;1672784;84;21014;-70
2022/07/05 00:57:33;;;;;;;5.28;4.85;;;;;;;22.09;59.26;100267.82;1669532;84;21036;-68
2022/07/05 00:59:59;;;;;;;4.28;3.95;;;;;;;22.09;59.28;100274.61;1674388;84;21010;-69
2022/07/05 01:02:25;;;;;;;7.95;4.95;;;;;;;22.06;59.63;100270.53;1672172;84;21045;-69
2022/07/05 01:04:52;;;;;;;5.08;4.15;;;;;;;22.05;59.41;100276.23;1685082;84;21041;-69
2022/07/05 01:07:23;;;;;;;5.00;4.53;;;;;;;22.05;59.13;100274.87;1679622;84;21053;-69
2022/07/05 01:09:50;;;;;;;6.12;4.03;;;;;;;22.04;58.91;100274.06;1674057;84;21040;-69
2022/07/05 01:12:18;;;;;;;5.03;4.72;;;;;;;22.05;58.77;100277.03;1668341;84;21021;-68
2022/07/05 01:14:46;;;;;;;4.00;3.70;;;;;;;22.05;58.87;100276.23;1662025;84;21026;-70
2022/07/05 01:17:14;;;;;;;4.85;4.50;;;;;;;22.04;58.88;100271.86;1670082;85;21078;-68
2022/07/05 01:19:41;;;;;;;4.55;4.25;;;;;;;22.04;58.67;100273.22;1665938;84;21584;-68
2022/07/05 01:22:18;;;;;;;6.40;4.78;;;;;;;22.05;58.61;100265.37;1664958;84;21046;-67
2022/07/05 01:24:50;;;;;;;5.90;3.83;;;;;;;22.03;58.51;100267.53;1680125;84;21021;-70
2022/07/05 01:27:18;;;;;;;4.83;4.20;;;;;;;22.03;58.54;100262.11;1672421;84;20994;-69
2022/07/05 01:29:45;;;;;;;5.60;5.10;;;;;;;22.01;58.53;100265.62;1675142;84;21238;-69
2022/07/05 01:32:12;;;;;;;6.70;4.58;;;;;;;21.99;58.86;100265.89;1668033;85;21041;-69
2022/07/05 01:34:40;;;;;;;4.62;4.05;;;;;;;21.95;59.37;100268.31;1678292;85;21055;-68
2022/07/05 01:37:08;;;;;;;5.60;5.08;;;;;;;21.89;59.75;100265.87;1675131;84;21051;-68
2022/07/05 01:39:35;;;;;;;4.55;4.25;;;;;;;21.83;59.97;100262.83;1683912;84;21132;-68
2022/07/05 01:42:03;;;;;;;4.47;4.17;;;;;;;21.77;60.02;100262.84;1681880;84;21055;-69
2022/07/05 01:44:30;;;;;;;4.25;4.05;;;;;;;21.74;60.21;100262.55;1686082;84;20978;-70
2022/07/05 01:47:05;;;;;;;5.08;4.58;;;;;;;21.71;60.20;100266.58;1670747;84;21755;-68
2022/07/05 01:49:36;;;;;;;4.47;4.17;;;;;;;21.69;59.93;100265.22;1684611;84;21057;-70
2022/07/05 01:55:05;;;;;;;6.87;4.47;;;;;;;21.68;60.20;100269.84;1797791;78;23855;-68
2022/07/05 01:57:31;;;;;;;4.60;4.30;;;;;;;21.63;60.47;100271.16;1719227;82;21501;-69
2022/07/05 01:59:57;;;;;;;5.95;4.05;;;;;;;21.58;60.77;100265.16;1726250;82;20989;-69
2022/07/05 02:02:23;;;;;;;5.05;4.53;;;;;;;21.56;61.02;100270.58;1712612;82;21068;-69
2022/07/05 02:04:51;;;;;;;4.67;4.17;;;;;;;21.51;61.33;100270.02;1725863;82;21128;-69
2022/07/05 02:07:17;;;;;;;5.47;4.95;;;;;;;21.48;61.47;100269.18;1729420;82;21041;-69
2022/07/05 02:09:45;;;;;;;4.15;3.87;;;;;;;21.46;61.54;100269.98;1731437;82;21013;-69
2022/07/05 02:12:12;;;;;;;4.22;4.03;;;;;;;21.46;61.70;100267.27;1728616;80;21159;-68
2022/07/05 02:14:38;;;;;;;5.35;4.85;;;;;;;21.48;61.87;100271.89;1729680;81;21609;-68
2022/07/05 02:17:08;;;;;;;5.03;4.60;;;;;;;21.49;61.93;100276.25;1732989;81;21041;-68
2022/07/05 02:19:37;;;;;;;5.33;4.67;;;;;;;21.50;61.85;100269.73;1730723;81;21037;-68
2022/07/05 02:22:04;;;;;;;5.10;4.55;;;;;;;21.55;61.92;100273.03;1738892;81;21036;-67
2022/07/05 02:24:32;;;;;;;4.72;4.20;;;;;;;21.63;61.85;100269.00;1722354;81;20990;-68
2022/07/05 02:27:16;;;;;;;6.15;4.58;;;;;;;21.76;61.70;100267.97;1674434;84;21056;-68
2022/07/05 02:29:43;;;;;;;5.05;4.55;;;;;;;22.01;61.26;100271.05;1662647;84;20951;-67
2022/07/05 02:32:09;;;;;;;5.00;4.53;;;;;;;22.26;60.86;100269.79;1679133;83;21160;-68
2022/07/05 02:34:36;;;;;;;4.22;3.95;;;;;;;22.53;59.89;100266.06;1678592;82;21081;-67
2022/07/05 02:37:03;;;;;;;4.97;4.33;;;;;;;22.78;59.34;100261.73;1682991;83;21037;-68
2022/07/05 02:39:29;;;;;;;5.12;4.62;;;;;;;23.01;58.62;100263.89;1696279;83;21097;-68
2022/07/05 02:41:56;;;;;;;5.22;4.75;;;;;;;23.32;57.81;100263.34;1658690;85;21041;-68
2022/07/05 02:44:22;;;;;;;6.05;4.72;;;;;;;23.68;57.05;100265.16;1664772;84;21163;-68
2022/07/05 02:46:49;;;;;;;4.95;4.60;;;;;;;24.05;55.58;100260.67;1650557;85;21064;-67
2022/07/05 02:49:15;;;;;;;4.22;3.92;;;;;;;24.41;54.71;100260.98;1652266;85;21059;-68
2022/07/05 02:51:41;;;;;;;4.00;3.77;;;;;;;24.60;54.01;100248.89;1646720;85;21535;-68
2022/07/05 02:54:09;;;;;;;4.50;4.20;;;;;;;25.05;52.93;100269.53;1642841;85;21686;-68
2022/07/05 02:56:36;;;;;;;9.23;4.28;;;;;;;25.38;52.51;100277.16;1652881;84;20997;-68
2022/07/05 02:59:05;;;;;;;4.10;3.80;;;;;;;25.71;51.60;100271.33;1666056;85;21585;-69
2022/07/05 03:01:33;;;;;;;4.47;4.10;;;;;;;26.03;50.91;100273.41;1665671;84;20985;-69
2022/07/05 03:04:00;;;;;;;4.90;4.15;;;;;;;26.37;49.90;100275.13;1688546;85;21044;-70
2022/07/05 03:06:28;;;;;;;6.12;3.92;;;;;;;26.72;49.15;100277.64;1659489;84;21112;-70
2022/07/05 03:08:54;;;;;;;5.53;4.25;;;;;;;26.96;48.57;100268.75;1666850;85;21053;-69
2022/07/05 03:11:20;;;;;;;4.53;4.22;;;;;;;27.21;47.99;100272.14;1660138;84;21093;-69
2022/07/05 03:13:47;;;;;;;6.00;5.40;;;;;;;27.47;46.77;100264.30;1650553;85;21121;-70
2022/07/05 03:16:14;;;;;;;4.55;4.15;;;;;;;27.75;46.08;100259.63;1621059;87;21059;-70
2022/07/05 03:18:41;;;;;;;5.72;4.45;;;;;;;28.09;45.34;100270.73;1649622;85;21108;-69
2022/07/05 03:21:08;;;;;;;4.97;4.53;;;;;;;28.41;44.64;100266.17;1621141;87;21137;-68
2022/07/05 03:23:34;;;;;;;6.00;5.40;;;;;;;28.69;43.82;100270.22;1655704;84;21066;-69
2022/07/05 03:26:03;;;;;;;16.32;5.25;;;;;;;28.95;43.66;100261.33;1661232;84;21093;-69
2022/07/05 03:28:30;;;;;;;5.90;5.12;;;;;;;29.30;42.72;100263.16;1650094;85;21034;-69
2022/07/05 03:30:58;;;;;;;5.55;5.03;;;;;;;29.61;42.70;100262.33;1652105;85;21299;-69
2022/07/05 03:33:26;;;;;;;5.12;4.30;;;;;;;29.99;42.32;100268.66;1661888;84;21609;-68
2022/07/05 03:35:54;;;;;;;8.98;5.65;;;;;;;30.32;41.66;100270.98;1647784;85;21040;-70
2022/07/05 03:38:21;;;;;;;8.15;4.75;;;;;;;30.56;40.96;100268.32;1643145;86;21546;-70
2022/07/05 03:40:47;;;;;;;5.28;4.70;;;;;;;30.79;40.34;100269.73;1647275;85;20982;-69
2022/07/05 03:43:13;;;;;;;5.12;4.62;;;;;;;31.03;39.50;100271.19;1644343;85;20941;-71
2022/07/05 03:45:39;;;;;;;6.12;5.05;;;;;;;31.15;39.01;100263.03;1612665;86;21556;-70
2022/07/05 03:48:07;;;;;;;7.97;4.67;;;;;;;31.24;39.00;100267.95;1641788;86;21515;-69
2022/07/05 03:50:35;;;;;;;6.20;4.20;;;;;;;31.51;38.54;100267.30;1645923;86;21108;-70
2022/07/05 03:53:02;;;;;;;6.70;4.65;;;;;;;31.53;37.97;100270.55;1644650;86;21111;-70
2022/07/05 03:55:29;;;;;;;5.03;4.17;;;;;;;31.27;38.37;100273.38;1636193;86;21141;-70
2022/07/05 03:57:55;;;;;;;5.12;4.53;;;;;;;30.89;39.04;100276.03;1635593;86;21180;-70
2022/07/05 04:00:22;;;;;;;4.62;4.08;;;;;;;30.39;40.02;100280.94;1633651;86;21616;-70
2022/07/05 04:02:50;;;;;;;4.58;4.25;;;;;;;30.31;40.91;100275.39;1628967;86;21078;-69
2022/07/05 04:05:16;;;;;;;5.30;3.98;;;;;;;30.59;40.31;100277.28;1669211;84;21013;-68
2022/07/05 04:07:55;;;;;;;3.77;3.55;;;;;;;30.99;39.69;100287.55;1620689;86;21011;-70
2022/07/05 04:10:23;;;;;;;4.78;3.83;;;;;;;31.37;39.12;100272.20;1663418;84;21042;-69
2022/07/05 04:12:50;;;;;;;6.90;4.05;;;;;;;31.73;38.33;100277.23;1622441;86;21078;-68
2022/07/05 04:15:17;;;;;;;4.20;3.80;;;;;;;32.06;38.58;100270.25;1635123;86;21104;-69
2022/07/05 04:17:54;;;;;;;5.08;3.85;;;;;;;32.41;37.51;100266.66;1665449;84;21083;-70
2022/07/05 04:20:24;;;;;;;4.08;3.72;;;;;;;32.60;36.67;100270.33;1663881;84;21077;-75
2022/07/05 04:22:51;;;;;;;4.05;3.72;;;;;;;32.71;36.70;100267.38;1677717;83;21030;-75
2022/07/05 04:25:19;;;;;;;6.87;3.30;;;;;;;32.85;36.41;100264.89;1675570;84;21006;-71
2022/07/05 04:27:51;;;;;;;4.12;3.22;;;;;;;32.93;36.56;100260.67;1707338;82;21558;-67
2022/07/05 04:30:21;;;;;;;3.33;2.55;;;;;;;33.15;35.87;100263.63;1716498;82;20979;-69
2022/07/05 04:32:48;;;;;;;3.10;2.42;;;;;;;33.38;34.92;100264.58;1710730;82;21038;-70
2022/07/05 04:35:16;;;;;;;13.53;3.62;;;;;;;33.47;35.17;100255.57;1700985;80;21074;-70
2022/07/05 04:37:44;;;;;;;3.12;2.62;;;;;;;33.50;35.23;100256.86;1706799;82;21153;-71
2022/07/05 04:40:13;;;;;;;5.80;2.70;;;;;;;33.49;35.04;100260.75;1703018;82;21158;-69
2022/07/05 04:42:40;;;;;;;3.45;2.98;;;;;;;33.63;34.76;100257.66;1705160;82;21026;-70
2022/07/05 04:45:09;;;;;;;3.75;2.98;;;;;;;33.83;34.19;100258.69;1705897;82;20983;-69
2022/07/05 04:47:36;;;;;;;2.65;1.98;;;;;;;33.96;34.00;100242.89;1701352;83;21062;-69
2022/07/05 04:50:06;;;;;;;3.20;2.95;;;;;;;34.19;33.59;100248.17;1705611;83;21069;-71
2022/07/05 04:52:34;;;;;;;3.90;3.60;;;;;;;34.32;33.22;100252.51;1679604;83;21013;-69
2022/07/05 04:55:01;;;;;;;3.67;3.37;;;;;;;34.47;33.96;100251.52;1695919;83;21014;-71
2022/07/05 04:57:37;;;;;;;5.37;3.17;;;;;;;34.46;33.28;100254.87;1701327;83;21024;-69
2022/07/05 05:00:05;;;;;;;;;;;;;;;34.42;33.29;100255.34;1713918;83;21006;-72
2022/07/05 05:02:31;;;;;;;6.25;3.33;;;;;;;34.41;32.93;100253.73;1683249;83;20555;-67
2022/07/05 05:04:57;;;;;;;3.33;3.02;;;;;;;34.30;33.62;100261.73;1671479;83;21170;-67
2022/07/05 05:07:23;;;;;;;3.75;3.00;;;;;;;34.26;32.98;100262.78;1684618;83;21074;-66
2022/07/05 05:09:50;;;;;;;2.92;2.72;;;;;;;34.25;33.50;100266.12;1682990;83;21089;-63
2022/07/05 05:12:18;;;;;;;2.95;2.62;;;;;;;34.16;34.05;100264.08;1693512;83;21964;-64
2022/07/05 05:14:44;;;;;;;3.52;2.90;;;;;;;34.16;34.18;100263.25;1660925;84;21145;-62
2022/07/05 05:17:10;;;;;;;4.08;2.85;;;;;;;34.27;34.18;100255.52;1670345;84;21126;-62
2022/07/05 05:19:38;;;;;;;3.72;3.42;;;;;;;34.45;34.04;100263.52;1657950;84;21026;-65
2022/07/05 05:22:05;;;;;;;3.75;3.30;;;;;;;34.54;33.13;100264.75;1622457;85;21094;-64
2022/07/05 05:24:34;;;;;;;4.90;3.20;;;;;;;34.59;33.08;100264.52;1637910;85;21066;-63
2022/07/05 05:26:59;;;;;;;4.35;3.00;;;;;;;34.70;32.49;100260.11;1664857;84;21130;-62
2022/07/05 05:29:26;;;;;;;5.00;2.65;;;;;;;34.86;32.27;100264.27;1663371;84;21070;-62
2022/07/05 05:31:52;;;;;;;3.12;2.55;;;;;;;34.94;31.35;100268.03;1669246;84;21050;-62
2022/07/05 05:34:18;;;;;;;5.78;3.17;;;;;;;34.92;31.26;100270.36;1685468;83;21492;-66
2022/07/05 05:36:45;;;;;;;8.18;4.05;;;;;;;34.89;31.26;100262.98;1699542;83;21028;-64
2022/07/05 05:39:11;;;;;;;4.17;3.35;;;;;;;34.86;32.08;100265.66;1697659;83;21041;-75
2022/07/05 05:41:38;;;;;;;3.55;3.30;;;;;;;34.63;32.78;100262.64;1699840;84;21052;-77
2022/07/05 05:44:04;;;;;;;8.78;3.27;;;;;;;34.55;32.63;100265.80;1686796;82;21053;-76
2022/07/05 05:46:31;;;;;;;4.40;3.98;;;;;;;34.47;32.76;100262.58;1699768;83;21049;-76
2022/07/05 05:48:58;;;;;;;4.20;3.90;;;;;;;34.50;32.97;100268.22;1699944;83;21571;-78
2022/07/05 05:51:24;;;;;;;5.03;3.72;;;;;;;34.65;32.88;100268.63;1698818;84;21569;-75
2022/07/05 05:53:51;;;;;;;8.83;4.25;;;;;;;34.73;32.48;100268.27;1699600;83;21013;-84
2022/07/05 05:56:17;;;;;;;3.60;3.15;;;;;;;34.78;31.63;100254.18;1700222;80;21663;-83
2022/07/05 05:58:43;;;;;;;8.50;3.83;;;;;;;34.82;31.74;100266.15;1698576;82;21031;-71
2022/07/05 06:01:09;;;;;;;4.60;2.77;;;;;;;34.64;31.81;100267.00;1708127;82;21051;-81
2022/07/05 06:03:37;;;;;;;3.15;2.95;;;;;;;34.50;31.48;100262.69;1698210;82;21041;-72
2022/07/05 06:06:03;;;;;;;4.10;2.83;;;;;;;34.49;31.23;100263.03;1696918;82;21082;-73
2022/07/05 06:08:31;;;;;;;5.65;2.52;;;;;;;34.57;31.01;100264.86;1702647;82;21535;-80
2022/07/05 06:10:57;;;;;;;4.78;2.20;;;;;;;34.59;30.80;100261.74;1705465;82;21026;-72
2022/07/05 06:13:23;;;;;;;5.12;1.55;;;;;;;34.59;30.97;100265.89;1701687;82;21081;-74
2022/07/05 06:15:50;;;;;;;5.70;2.40;;;;;;;34.63;30.95;100264.83;1710999;82;21034;-74
2022/07/05 06:18:17;;;;;;;5.55;1.60;;;;;;;34.58;30.48;100269.22;1704689;82;21545;-74
2022/07/05 06:20:43;;;;;;;3.60;1.80;;;;;;;34.50;30.89;100267.42;1707514;82;21003;-71
2022/07/05 06:23:09;;;;;;;2.05;1.70;;;;;;;34.50;30.24;100259.12;1689065;82;21024;-76
2022/07/05 06:25:36;;;;;;;2.75;1.32;;;;;;;34.28;30.09;100232.80;1672537;83;21064;-73
2022/07/05 06:28:07;;;;;;;7.30;2.22;;;;;;;34.40;30.81;100261.02;1685062;83;21072;-72
2022/07/05 06:30:37;;;;;;;3.87;2.05;;;;;;;34.48;30.61;100258.67;1678249;83;20989;-73
2022/07/05 06:33:04;;;;;;;4.53;2.25;;;;;;;34.61;30.59;100258.84;1685579;82;21108;-70
2022/07/05 06:35:31;;;;;;;10.98;2.20;;;;;;;34.73;30.64;100261.35;1684050;83;21112;-74
2022/07/05 06:38:02;;;;;;;6.03;2.20;;;;;;;34.78;30.59;100258.33;1691436;83;21568;-74
2022/07/05 06:40:34;;;;;;;7.97;2.50;;;;;;;34.76;30.18;100255.12;1670585;83;21037;-74
2022/07/05 06:43:05;;;;;;;5.80;1.77;;;;;;;34.88;29.85;100258.59;1683648;83;21134;-74
2022/07/05 06:45:48;;;;;;;1.02;0.80;;;;;;;35.00;29.11;100259.68;1657439;83;21036;-76
2022/07/05 06:48:15;;;;;;;6.65;1.52;;;;;;;34.97;28.90;100259.83;1648974;83;21348;-73
2022/07/05 06:50:44;;;;;;;5.35;1.67;;;;;;;34.75;29.81;100227.20;1633020;86;21094;-75
2022/07/05 06:53:11;;;;;;;4.97;2.22;;;;;;;35.04;29.61;100258.63;1629481;86;21046;-74
2022/07/05 06:55:44;;;;;;;3.98;2.52;;;;;;;35.05;29.28;100256.66;1635596;86;20958;-74
2022/07/05 06:58:08;;;;;;;5.12;2.35;;;;;;;34.99;29.54;100254.73;1631162;86;21078;-73
2022/07/05 07:00:36;;;;;;;7.80;1.95;;;;;;;34.98;30.17;100256.47;1645045;86;21636;-73
2022/07/05 07:03:02;;;;;;;6.03;1.85;;;;;;;34.99;29.46;100256.70;1650364;86;21066;-74
2022/07/05 07:05:28;;;;;;;6.92;1.98;;;;;;;35.00;29.87;100253.58;1652315;86;21023;-76
2022/07/05 07:10:43;;;;;;;3.72;1.65;;;;;;;35.20;29.13;100260.63;1646970;86;21003;-72
2022/07/05 07:13:09;;;;;;;3.08;1.87;;;;;;;35.26;29.35;100258.63;1642880;83;21509;-77
2022/07/05 07:15:35;;;;;;;1.50;1.30;;;;;;;35.19;29.37;100261.78;1635501;86;21052;-76
2022/07/05 07:18:01;;;;;;;5.83;1.30;;;;;;;35.10;29.40;100260.55;1640714;85;21094;-74
2022/07/05 07:20:31;;;;;;;5.22;1.60;;;;;;;35.09;29.50;100260.31;1691449;83;21666;-75
2022/07/05 07:22:59;;;;;;;4.17;1.60;;;;;;;35.04;29.17;100260.02;1689732;82;21106;-74
2022/07/05 07:25:27;;;;;;;10.45;1.87;;;;;;;34.87;29.18;100254.82;1722308;82;21212;-77
2022/07/05 07:27:55;;;;;;;3.55;1.85;;;;;;;34.59;29.64;100257.01;1712103;82;21022;-74
2022/07/05 07:30:25;;;;;;;1.55;1.40;;;;;;;34.53;30.40;100252.89;1712592;82;21079;-75
2022/07/05 07:32:53;;;;;;;4.42;2.70;;;;;;;34.63;30.10;100257.91;1710376;82;21055;-76
2022/07/05 07:35:22;;;;;;;3.70;2.10;;;;;;;34.53;30.76;100255.66;1705646;82;21041;-73
2022/07/05 07:37:48;;;;;;;8.50;5.08;;;;;;;34.14;31.31;100257.48;1701424;82;21085;-74
2022/07/05 07:40:15;;;;;;;3.87;2.55;;;;;;;33.74;32.26;100259.64;1702911;82;21081;-74
2022/07/05 07:42:41;;;;;;;3.65;1.85;;;;;;;33.45;32.86;100257.87;1696668;82;21384;-74
2022/07/05 07:45:09;;;;;;;5.83;2.77;;;;;;;32.96;33.45;100251.72;1686266;82;21498;-74
2022/07/05 07:47:37;;;;;;;5.50;2.98;;;;;;;32.54;34.11;100250.97;1639097;85;21098;-75
2022/07/05 07:50:06;;;;;;;3.92;2.45;;;;;;;32.25;35.44;100251.31;1640182;86;21025;-74
2022/07/05 07:52:34;;;;;;;4.60;2.45;;;;;;;31.96;34.22;100251.55;1643098;85;21049;-75
2022/07/05 07:55:02;;;;;;;8.35;3.05;;;;;;;31.67;35.13;100264.00;1642487;85;21424;-72
2022/07/05 07:57:28;;;;;;;2.42;2.22;;;;;;;31.44;35.61;100254.60;1640406;85;21062;-75
2022/07/05 07:59:55;;;;;;;3.70;2.45;;;;;;;31.38;35.86;100247.64;1640831;86;21120;-74
2022/07/05 08:02:22;;;;;;;9.18;2.80;;;;;;;31.39;36.40;100251.45;1697081;83;21158;-73
2022/07/05 08:04:50;;;;;;;5.20;2.87;;;;;;;31.37;35.99;100247.42;1691815;83;21075;-74
2022/07/05 08:07:18;;;;;;;2.62;2.35;;;;;;;31.32;36.12;100254.48;1666038;85;21025;-74
2022/07/05 08:09:44;;;;;;;6.35;3.55;;;;;;;31.27;36.15;100247.77;1701699;84;21005;-74
2022/07/05 08:12:11;;;;;;;6.28;3.00;;;;;;;31.21;35.95;100245.22;1707056;82;21057;-75
2022/07/05 08:14:38;;;;;;;8.08;2.17;;;;;;;31.14;36.11;100249.63;1701035;83;21135;-76
2022/07/05 08:17:08;;;;;;;2.52;1.80;;;;;;;30.99;36.23;100249.59;1700545;83;21057;-75
2022/07/05 08:22:19;;;;;;;2.67;1.85;;;;;;;30.81;36.18;100252.91;1698009;82;21105;-75
2022/07/05 08:24:46;;;;;;;1.90;1.62;;;;;;;30.80;35.95;100244.42;1715526;82;21557;-76
2022/07/05 08:27:13;;;;;;;2.27;1.82;;;;;;;30.82;36.32;100233.90;1717640;82;21022;-76
2022/07/05 08:29:41;;;;;;;5.22;2.40;;;;;;;30.91;35.55;100233.34;1717759;82;21104;-76
2022/07/05 08:32:09;;;;;;;2.85;1.65;;;;;;;30.97;35.54;100227.89;1718326;82;21082;-78
2022/07/05 08:34:36;;;;;;;4.17;2.10;;;;;;;31.02;35.76;100224.14;1719693;81;20991;-75
2022/07/05 08:37:03;;;;;;;5.35;1.70;;;;;;;31.07;35.81;100234.98;1710687;82;21112;-74
2022/07/05 08:39:30;;;;;;;2.95;1.30;;;;;;;31.12;35.16;100226.55;1715845;82;21011;-75
2022/07/05 08:41:59;;;;;;;3.37;1.70;;;;;;;31.17;34.62;100221.42;1714397;82;21085;-76
2022/07/05 08:44:29;;;;;;;1.32;1.22;;;;;;;31.11;35.11;100225.50;1713685;82;20967;-75
2022/07/05 08:46:57;;;;;;;1.90;1.50;;;;;;;31.09;35.21;100234.08;1722002;82;20999;-76
2022/07/05 08:49:28;;;;;;;2.20;1.40;;;;;;;31.09;34.73;100224.45;1676622;84;21097;-77
2022/07/05 08:51:56;;;;;;;3.83;1.95;;;;;;;31.15;34.68;100243.77;1673675;84;21150;-77
2022/07/05 08:54:24;;;;;;;3.85;2.10;;;;;;;31.14;34.51;100229.78;1675119;84;21048;-77
2022/07/05 08:56:53;;;;;;;5.28;2.17;;;;;;;31.18;34.55;100225.80;1669507;84;21031;-77
2022/07/05 08:59:19;;;;;;;2.25;1.75;;;;;;;31.21;34.57;100235.59;1670445;84;20998;-78
2022/07/05 09:01:47;;;;;;;2.00;1.70;;;;;;;31.19;34.80;100246.12;1671387;84;21114;-78
2022/07/05 09:04:15;;;;;;;2.58;1.67;;;;;;;31.19;34.69;100229.61;1670218;84;21067;-76
2022/07/05 09:06:42;;;;;;;1.85;1.70;;;;;;;31.27;34.71;100231.25;1650816;86;22148;-74
2022/07/05 09:09:08;;;;;;;1.57;1.42;;;;;;;31.34;34.90;100235.10;1651544;85;21003;-75
2022/07/05 09:11:41;;;;;;;3.47;1.25;;;;;;;31.42;33.67;100232.09;1659471;84;21054;-75
2022/07/05 09:14:21;;;;;;;4.12;1.37;;;;;;;31.48;33.63;100240.44;1634538;85;21138;-75
2022/07/05 09:16:48;;;;;;;1.67;1.35;;;;;;;31.52;33.18;100237.25;1707599;82;21106;-73
2022/07/05 09:19:15;;;;;;;3.25;1.40;;;;;;;31.48;33.71;100239.63;1709208;82;20977;-76
2022/07/05 09:21:43;;;;;;;1.80;1.40;;;;;;;31.39;33.30;100241.01;1715391;82;21072;-75
2022/07/05 09:24:11;;;;;;;0.98;0.88;;;;;;;31.38;33.04;100239.38;1709740;81;21017;-75
2022/07/05 09:26:48;;;;;;;1.80;1.17;;;;;;;31.41;33.06;100228.52;1715225;82;21049;-75
2022/07/05 09:29:18;;;;;;;2.90;1.22;;;;;;;31.49;33.05;100238.48;1717359;82;21022;-75
2022/07/05 09:31:48;;;;;;;1.50;1.05;;;;;;;31.55;32.96;100231.63;1715402;82;20992;-76
2022/07/05 09:34:17;;;;;;;1.40;1.40;;;;;;;31.61;32.98;100232.50;1707039;81;21082;-74
2022/07/05 09:36:58;;;;;;;7.25;1.95;;;;;;;31.65;32.66;100246.42;1706091;82;21045;-73
2022/07/05 09:39:36;;;;;;;2.05;1.47;;;;;;;31.71;32.89;100228.55;1696692;82;21122;-75
2022/07/05 09:42:23;;;;;;;1.98;1.42;;;;;;;31.77;32.17;100236.05;1700153;82;21064;-74
2022/07/05 09:44:57;;;;;;;1.22;1.20;;;;;;;31.88;31.90;100228.20;1703286;82;21032;-75
2022/07/05 09:47:27;;;;;;;1.77;1.10;;;;;;;31.96;31.72;100233.64;1695576;83;21155;-76
2022/07/05 09:50:05;;;;;;;1.70;1.60;;;;;;;32.03;31.55;100229.59;1698591;83;21021;-75
2022/07/05 09:52:39;;;;;;;2.02;1.20;;;;;;;32.09;31.96;100228.24;1700066;83;21041;-76
2022/07/05 09:55:17;;;;;;;3.17;1.47;;;;;;;32.21;31.96;100225.53;1698705;82;21123;-76
2022/07/05 09:57:46;;;;;;;1.65;1.55;;;;;;;32.25;31.46;100224.28;1719823;83;20969;-76
2022/07/05 10:00:19;;;;;;;1.95;1.85;;;;;;;32.18;31.55;100226.22;1712080;82;21141;-76
2022/07/05 10:03:00;;;;;;;1.72;1.50;;;;;;;32.04;31.95;100219.58;1713096;83;21045;-75
2022/07/05 10:05:26;;;;;;;2.02;1.75;;;;;;;31.92;31.79;100229.94;1703625;83;21010;-76
2022/07/05 10:07:55;;;;;;;1.77;1.47;;;;;;;31.83;31.59;100229.19;1718584;83;20973;-75
2022/07/05 10:10:33;;;;;;;1.82;1.10;;;;;;;31.80;31.63;100231.26;1717723;83;20978;-74
2022/07/05 10:13:02;;;;;;;3.55;1.70;;;;;;;31.81;31.49;100228.72;1688822;81;21056;-74
2022/07/05 10:15:33;;;;;;;1.50;1.37;;;;;;;31.79;31.74;100218.61;1696279;83;21018;-77
2022/07/05 10:18:14;;;;;;;1.47;1.20;;;;;;;31.72;31.68;100226.59;1695848;83;21061;-76
2022/07/05 10:20:45;;;;;;;4.92;1.37;;;;;;;31.59;32.22;100222.39;1697651;83;21488;-76
2022/07/05 10:23:18;;;;;;;2.30;1.25;;;;;;;31.50;32.90;100229.89;1696480;81;21533;-75
2022/07/05 10:25:49;;;;;;;1.82;1.25;;;;;;;31.49;33.13;100223.33;1698008;83;21110;-77
2022/07/05 10:28:18;;;;;;;1.62;1.52;;;;;;;31.43;33.54;100224.05;1695133;83;21063;-75
2022/07/05 10:30:51;;;;;;;1.55;1.27;;;;;;;31.32;33.43;100220.06;1692301;83;21029;-76
2022/07/05 10:33:24;;;;;;;2.27;1.42;;;;;;;31.25;33.61;100221.97;1697543;83;21547;-74
2022/07/05 10:35:47;;;;;;;1.15;0.90;;;;;;;31.21;33.73;100215.48;1719897;81;21516;-76
2022/07/05 10:38:14;;;;;;;3.37;1.52;;;;;;;31.15;33.61;100227.25;1720177;83;21092;-72
2022/07/05 10:40:44;;;;;;;3.25;1.20;;;;;;;31.07;33.97;100223.17;1719003;83;21029;-75
2022/07/05 10:43:14;;;;;;;3.33;1.50;;;;;;;30.97;33.95;100217.46;1689651;82;21009;-73
2022/07/05 10:45:49;;;;;;;1.70;1.47;;;;;;;30.92;33.93;100219.00;1718153;81;21001;-75
2022/07/05 10:48:19;;;;;;;3.20;1.10;;;;;;;30.85;34.27;100217.55;1712029;82;21001;-76
2022/07/05 10:51:14;;;;;;;1.90;1.40;;;;;;;30.82;34.54;100223.70;1715512;82;21021;-75
2022/07/05 10:54:01;;;;;;;;;;;;;;;30.81;34.48;100215.76;1718071;82;21588;-76
2022/07/05 10:56:28;;;;;;;1.95;0.70;;;;;;;30.81;34.45;100220.69;1718252;81;20432;-74
2022/07/05 10:59:09;;;;;;;4.35;1.37;;;;;;;30.73;34.26;100227.03;1717624;82;21072;-75
2022/07/05 11:01:39;;;;;;;1.00;1.00;;;;;;;30.71;34.17;100215.55;1716713;82;21008;-76
2022/07/05 11:04:14;;;;;;;2.12;1.30;;;;;;;30.71;34.29;100211.42;1710748;82;21048;-75
2022/07/05 11:06:44;;;;;;;3.17;1.40;;;;;;;30.73;34.34;100209.15;1719337;82;21989;-74
2022/07/05 11:09:15;;;;;;;1.15;1.05;;;;;;;30.72;34.50;100203.97;1721372;82;21001;-77
2022/07/05 11:11:53;;;;;;;2.80;1.45;;;;;;;30.70;34.66;100215.30;1717285;82;21081;-76
2022/07/05 11:14:29;;;;;;;0.98;0.98;;;;;;;30.69;34.21;100205.44;1713449;83;21619;-75
2022/07/05 11:17:15;;;;;;;2.87;1.60;;;;;;;30.59;34.41;100204.39;1707716;82;20982;-76
2022/07/05 11:20:02;;;;;;;1.60;1.50;;;;;;;30.55;34.84;100208.94;1711259;82;21072;-76
2022/07/05 11:22:29;;;;;;;2.92;2.00;;;;;;;30.56;34.56;100201.73;1709375;83;21576;-75
2022/07/05 11:24:58;;;;;;;2.33;1.67;;;;;;;30.63;34.33;100202.05;1694187;83;21054;-76
2022/07/05 11:27:25;;;;;;;2.10;1.20;;;;;;;30.75;34.07;100190.94;1696711;83;21065;-74
2022/07/05 11:29:57;;;;;;;6.62;1.62;;;;;;;30.88;34.10;100183.63;1695578;83;21103;-70
2022/07/05 11:32:32;;;;;;;1.10;1.10;;;;;;;31.02;34.02;100184.23;1694918;83;21049;-69
2022/07/05 11:35:19;;;;;;;1.67;1.37;;;;;;;31.06;32.67;100178.30;1697150;83;21045;-71
2022/07/05 11:38:01;;;;;;;4.50;1.70;;;;;;;31.11;32.58;100181.45;1694654;83;21003;-70
2022/07/05 11:40:34;;;;;;;2.95;1.52;;;;;;;31.15;32.38;100183.20;1695693;83;21149;-69
2022/07/05 11:43:06;;;;;;;2.15;1.30;;;;;;;31.18;32.53;100190.81;1695004;83;21091;-70